Meteo Giornale » Osservazioni meteo Stati Uniti (USA) » Bellingham

ore: 07:53 - Osservazioni Meteo Bellingham
Lat. 48° 47' N Lon. 122° 32' W Alt. 48 metri s.l.m.

sereno

14 °C

Sereno

Temp. 24 Ore

11 °C

23 °C

Sud

7.4 Km/h

Dew point 13 °C

Umidità 93 %

Visibilità  10 Km

Il sole sorge alle ore 06:27

Il sole tramonta alle ore 19:52

Data e Ora Cielo e Fenomeni T °C DP °C Um. % Pres. hPa Vis. km Vento km/h
Oggi h: 07:53 sereno Sereno 14 13 93 1009 10 S 7.4
Oggi h: 06:53 sereno Sereno 13 12 93 1008 10 S 9.3
Oggi h: 05:53 sereno Sereno 11 11 100 1008 10 N 0
Oggi h: 04:53 sereno Sereno 12 11 93 1008 14 N 0
Oggi h: 03:53 sereno Sereno 12 12 100 1008 10 N 0
Oggi h: 02:53 sereno Sereno 13 13 100 1008 10 S 7.4
Oggi h: 01:53 sereno Sereno 12 12 100 1008 10 N 5.5
Oggi h: 00:53 sereno Sereno 13 12 93 1008 10 N 0
Ieri h: 23:53 sereno Sereno 13 12 93 1008 10 N 0
Ieri h: 22:53 sereno Sereno 13 12 93 1008 10 N 0
Ieri h: 21:53 sereno Sereno 14 12 87 1008 10 N 0
Ieri h: 20:53 sereno Sereno 15 12 82 1008 10 N 0
Ieri h: 19:53 sereno Sereno 17 13 77 1008 10 N 0
Ieri h: 18:53 sereno Sereno 20 12 59 1008 10 N 0
Ieri h: 17:53 sereno Sereno 21 12 56 1008 10 NO 11.1
Ieri h: 16:53 sereno Sereno 22 12 53 1009 10 N 11.1
Ieri h: 15:53 sereno Sereno 23 13 53 1009 10 O/NO 13
Ieri h: 14:53 sereno Sereno 22 13 56 1010 10 NO 16.7
Ieri h: 13:53 sereno Sereno 21 13 60 1011 10 O/SO 14.8
Ieri h: 12:53 sereno Sereno 23 11 46 1012 10 N 0
Ieri h: 11:53 sereno Sereno 21 11 52 1012 10 N 7.4
Ieri h: 10:53 sereno Sereno 19 11 59 1013 10 N/NO 13
Ieri h: 09:53 sereno Sereno 17 11 67 1014 10 N/NE 13
Ieri h: 08:53 sereno Sereno 14 11 82 1014 10 N/NE 11.1